Ryde, United Kingdom
Current Conditions -  °F | °C
As of 9:50 PM on Monday 24 Nov 2014 (Local Time) from EGHI Reporting Station
Clear Clear  
Wind Chill: 27°   Ceiling: Unl
Heat Index: 32°   Visibility: 6mi
Dew Point: 32°   Wind: 5mph
Humidity: 100%   Direction: 20°NNE
Pressure: 30.33"   Gusts: NA
Location:  50.73°N, 1.16°W
Report Text: EGHI 242150Z 02004KT CAVOK 00/M00 Q1027
Loading
Personal Weather Stations






























Interactive Weather Map New forecast layout! Learn more

10-Day Weather Forecast

Advertisements
Track Severe Weather on mobile